Time;durP1;ratioP1;P1;durP2;ratioP2;P2;SDS_P1;SDS_P2;PMS_P1;PMS_P2;Temp;Humidity;BMP_temperature;BMP_pressure;BME280_temperature;BME280_humidity;BME280_pressure;Samples;Min_cycle;Max_cycle;Signal;HPM_P1;HPM_P2
2021/08/27 00:00:14;;;;;;;2.78;1.52;;;;;;;12.13;100.00;100164.53;4979765;28;20083;-88
2021/08/27 00:02:44;;;;;;;2.30;1.58;;;;;;;12.14;100.00;100163.63;4999673;28;20068;-88
2021/08/27 00:05:11;;;;;;;1.60;1.45;;;;;;;12.12;100.00;100161.03;4986221;28;20407;-88
2021/08/27 00:07:38;;;;;;;2.53;1.88;;;;;;;12.16;100.00;100151.19;5018237;28;20530;-88
2021/08/27 00:10:05;;;;;;;3.47;1.50;;;;;;;12.16;100.00;100157.34;4996436;28;20056;-88
2021/08/27 00:12:32;;;;;;;1.73;1.50;;;;;;;12.18;100.00;100159.94;4982694;28;20042;-89
2021/08/27 00:14:59;;;;;;;2.00;1.58;;;;;;;12.16;100.00;100159.13;5004451;28;20065;-89
2021/08/27 00:17:29;;;;;;;2.17;1.80;;;;;;;12.14;100.00;100148.59;4990275;28;20101;-88
2021/08/27 00:19:57;;;;;;;2.47;1.70;;;;;;;12.21;100.00;100154.56;4978872;28;20606;-88
2021/08/27 00:22:26;;;;;;;1.42;1.30;;;;;;;12.20;100.00;100150.19;4983909;28;20108;-88
2021/08/27 00:24:53;;;;;;;2.20;1.58;;;;;;;12.10;100.00;100153.13;5010630;28;20577;-88
2021/08/27 00:27:19;;;;;;;1.75;1.45;;;;;;;12.23;100.00;100147.41;5010754;28;20044;-88
2021/08/27 00:29:46;;;;;;;2.58;1.63;;;;;;;12.16;100.00;100140.59;4978944;28;20040;-88
2021/08/27 00:32:13;;;;;;;2.65;1.70;;;;;;;12.19;100.00;100144.03;4994708;28;20054;-87
2021/08/27 00:34:39;;;;;;;1.40;1.30;;;;;;;12.16;100.00;100141.47;5006594;28;20555;-87
2021/08/27 00:37:06;;;;;;;3.10;1.98;;;;;;;12.15;100.00;100142.38;4967565;28;20038;-88
2021/08/27 00:39:33;;;;;;;2.67;1.70;;;;;;;12.25;100.00;100142.91;4979600;28;20622;-87
2021/08/27 00:42:00;;;;;;;1.92;1.70;;;;;;;12.22;100.00;100138.59;4992242;28;20058;-86
2021/08/27 00:44:28;;;;;;;3.97;1.80;;;;;;;12.20;100.00;100137.81;5010310;28;20042;-88
2021/08/27 00:46:55;;;;;;;3.28;2.15;;;;;;;12.27;100.00;100135.78;4993035;28;20392;-88
2021/08/27 00:49:22;;;;;;;2.65;1.60;;;;;;;12.23;100.00;100136.81;5022872;28;20133;-89
2021/08/27 00:51:49;;;;;;;2.10;1.60;;;;;;;12.21;100.00;100136.88;4978600;28;20050;-88
2021/08/27 00:54:17;;;;;;;2.72;2.08;;;;;;;12.23;100.00;100136.81;4978635;28;20093;-89
2021/08/27 00:56:43;;;;;;;2.10;1.67;;;;;;;12.24;100.00;100135.91;4995036;28;20052;-88
2021/08/27 00:59:10;;;;;;;2.47;1.67;;;;;;;12.24;100.00;100134.09;4999252;28;20042;-89
2021/08/27 01:01:37;;;;;;;3.03;2.42;;;;;;;12.34;100.00;100140.81;4988950;28;20483;-88
2021/08/27 01:04:04;;;;;;;1.95;1.75;;;;;;;12.25;100.00;100129.69;5016544;28;20046;-88
2021/08/27 01:07:00;;;;;;;2.33;1.70;;;;;;;12.19;100.00;100136.06;4986292;28;20045;-87
2021/08/27 01:09:56;;;;;;;3.17;1.65;;;;;;;12.31;100.00;100130.31;4995782;28;20046;-86
2021/08/27 01:12:35;;;;;;;1.50;1.40;;;;;;;12.23;100.00;100134.16;4973555;28;20061;-86
2021/08/27 01:15:35;;;;;;;3.58;2.03;;;;;;;12.18;100.00;100133.47;4998102;28;20053;-86
2021/08/27 01:18:42;;;;;;;2.13;1.30;;;;;;;12.15;100.00;100131.78;5008630;28;20034;-86
2021/08/27 01:21:30;;;;;;;2.72;1.70;;;;;;;12.20;100.00;100132.50;4949087;28;20389;-88
2021/08/27 01:23:59;;;;;;;1.50;1.40;;;;;;;12.20;100.00;100139.59;5007320;28;20538;-84
2021/08/27 01:26:33;;;;;;;2.10;1.50;;;;;;;12.25;100.00;100145.56;4979364;28;20072;-87
2021/08/27 01:29:01;;;;;;;2.58;1.67;;;;;;;12.28;100.00;100145.47;4978851;28;20577;-88
2021/08/27 01:31:35;;;;;;;1.88;1.73;;;;;;;12.27;100.00;100144.59;5014777;28;20049;-85
2021/08/27 01:34:15;;;;;;;2.92;2.00;;;;;;;12.26;100.00;100142.00;4994683;28;20046;-87
2021/08/27 01:36:43;;;;;;;3.95;2.00;;;;;;;12.28;100.00;100140.19;5012464;28;20089;-86
2021/08/27 01:39:11;;;;;;;2.00;1.55;;;;;;;12.23;100.00;100139.47;4996706;28;20049;-87
2021/08/27 01:41:40;;;;;;;2.65;1.85;;;;;;;12.28;100.00;100141.03;5009492;28;20042;-86
2021/08/27 01:44:10;;;;;;;2.25;1.70;;;;;;;12.25;100.00;100149.06;4976850;28;20454;-88
2021/08/27 01:46:39;;;;;;;2.90;1.92;;;;;;;12.25;100.00;100149.06;4971805;28;20465;-89
2021/08/27 01:49:07;;;;;;;2.88;2.15;;;;;;;12.28;100.00;100151.63;4977758;28;20050;-86
2021/08/27 01:51:35;;;;;;;2.25;1.98;;;;;;;12.29;100.00;100147.19;4980794;28;20038;-87
2021/08/27 01:54:03;;;;;;;2.67;1.98;;;;;;;12.28;100.00;100153.44;4977671;28;20072;-87
2021/08/27 01:56:31;;;;;;;2.05;1.70;;;;;;;12.28;100.00;100159.59;4996937;28;20509;-86
2021/08/27 01:58:58;;;;;;;3.03;1.67;;;;;;;12.25;100.00;100146.44;4994642;28;20049;-88
2021/08/27 02:01:26;;;;;;;1.85;1.70;;;;;;;12.26;100.00;100148.16;4994296;28;20518;-86
2021/08/27 02:03:53;;;;;;;3.03;2.13;;;;;;;12.24;100.00;100144.69;4994677;28;20056;-87
2021/08/27 02:06:22;;;;;;;3.70;1.88;;;;;;;12.26;100.00;100148.16;4996644;28;20057;-86
2021/08/27 02:08:50;;;;;;;2.50;1.88;;;;;;;12.29;100.00;100136.59;4994784;28;20042;-87
2021/08/27 02:11:18;;;;;;;2.55;2.25;;;;;;;12.32;100.00;100147.94;4994900;28;20064;-87
2021/08/27 02:13:45;;;;;;;3.15;1.52;;;;;;;12.29;100.00;100144.56;4995782;28;20407;-88
2021/08/27 02:16:13;;;;;;;1.88;1.67;;;;;;;12.27;100.00;100139.28;5007445;28;20045;-88
2021/08/27 02:18:40;;;;;;;2.05;1.80;;;;;;;12.26;100.00;100149.94;4999463;28;20071;-88
2021/08/27 02:21:09;;;;;;;2.70;2.00;;;;;;;12.25;100.00;100151.72;5021601;28;20442;-86
2021/08/27 02:23:41;;;;;;;2.22;1.95;;;;;;;12.22;100.00;100146.56;4995850;28;20046;-87
2021/08/27 02:26:12;;;;;;;3.47;1.83;;;;;;;12.22;100.00;100151.84;4996035;28;20096;-89
2021/08/27 02:28:40;;;;;;;1.90;1.65;;;;;;;12.18;100.00;100152.00;4988830;28;20052;-88
2021/08/27 02:31:07;;;;;;;2.17;1.60;;;;;;;12.16;100.00;100157.34;4981243;28;20046;-87
2021/08/27 02:33:36;;;;;;;2.58;1.85;;;;;;;12.17;100.00;100153.78;4998042;28;20038;-88
2021/08/27 02:36:05;;;;;;;2.30;1.45;;;;;;;12.19;100.00;100156.38;4997325;28;20050;-86
2021/08/27 02:38:32;;;;;;;1.70;1.50;;;;;;;12.20;100.00;100152.81;4998706;28;20555;-87
2021/08/27 02:40:59;;;;;;;4.70;2.05;;;;;;;12.31;100.00;100156.81;5004789;28;20044;-87
2021/08/27 02:43:26;;;;;;;1.70;1.35;;;;;;;12.23;100.00;100160.66;5015380;28;20046;-87
2021/08/27 02:45:53;;;;;;;1.73;1.50;;;;;;;12.21;100.00;100152.75;4989359;28;20046;-87
2021/08/27 02:48:20;;;;;;;3.25;1.83;;;;;;;12.20;100.00;100155.47;4988063;28;20046;-87
2021/08/27 02:50:52;;;;;;;2.83;2.10;;;;;;;12.18;100.00;100152.84;5025003;28;22077;-88
2021/08/27 02:53:27;;;;;;;2.17;1.95;;;;;;;12.20;100.00;100164.28;5000000;28;20045;-87
2021/08/27 02:55:59;;;;;;;2.55;2.22;;;;;;;12.19;100.00;100164.31;4995887;28;20091;-87
2021/08/27 02:58:27;;;;;;;2.78;1.70;;;;;;;12.11;100.00;100160.16;4977207;28;20056;-87
2021/08/27 03:01:06;;;;;;;3.05;1.75;;;;;;;12.12;100.00;100155.75;4973621;28;20053;-87
2021/08/27 03:03:38;;;;;;;2.47;1.30;;;;;;;12.09;100.00;100161.13;5010468;28;20092;-87
2021/08/27 03:06:23;;;;;;;2.15;1.80;;;;;;;12.15;100.00;100152.97;4967668;28;20046;-89
2021/08/27 03:08:58;;;;;;;3.28;1.70;;;;;;;12.09;100.00;100154.03;5013193;28;20740;-87
2021/08/27 03:11:31;;;;;;;4.20;2.10;;;;;;;12.13;100.00;100156.59;4997549;28;20096;-87
2021/08/27 03:14:06;;;;;;;2.03;1.52;;;;;;;12.02;100.00;100156.94;4981191;28;20046;-86
2021/08/27 03:16:33;;;;;;;2.15;1.77;;;;;;;12.00;100.00;100153.50;4982685;28;20038;-87
2021/08/27 03:19:06;;;;;;;3.67;1.77;;;;;;;11.92;100.00;100155.53;5013473;28;20057;-85
2021/08/27 03:21:41;;;;;;;2.53;1.60;;;;;;;11.87;100.00;100160.16;4980776;28;20044;-86
2021/08/27 03:24:29;;;;;;;1.77;1.63;;;;;;;11.84;100.00;100158.44;5002849;28;20057;-86
2021/08/27 03:27:00;;;;;;;2.65;2.33;;;;;;;11.75;100.00;100162.22;5000837;28;20124;-86
2021/08/27 03:29:38;;;;;;;2.28;1.90;;;;;;;11.70;100.00;100160.69;5002303;28;20045;-87
2021/08/27 03:32:05;;;;;;;3.85;1.63;;;;;;;11.63;100.00;100164.44;5013465;28;20048;-87
2021/08/27 03:34:34;;;;;;;3.45;1.60;;;;;;;11.57;100.00;100163.69;4985327;28;20065;-86
2021/08/27 03:37:01;;;;;;;2.55;1.50;;;;;;;11.54;100.00;100165.59;4992306;28;20100;-86
2021/08/27 03:39:29;;;;;;;2.00;1.50;;;;;;;11.51;100.00;100158.59;4985657;28;20102;-86
2021/08/27 03:42:01;;;;;;;1.90;1.50;;;;;;;11.47;100.00;100154.34;4989819;28;20053;-84
2021/08/27 03:44:31;;;;;;;3.25;1.50;;;;;;;11.44;100.00;100157.09;5022395;28;20042;-86
2021/08/27 03:46:58;;;;;;;1.88;1.52;;;;;;;11.43;100.00;100155.34;5008567;28;20049;-86
2021/08/27 03:49:25;;;;;;;2.53;1.55;;;;;;;11.43;100.00;100165.06;4987120;28;20049;-85
2021/08/27 03:51:52;;;;;;;1.95;1.60;;;;;;;11.45;100.00;100158.81;4986429;28;20050;-85
2021/08/27 03:54:22;;;;;;;1.67;1.48;;;;;;;11.41;100.00;100158.97;4998275;28;20050;-85
2021/08/27 03:56:50;;;;;;;2.08;1.60;;;;;;;11.40;100.00;100158.09;4993879;28;20248;-86
2021/08/27 03:59:18;;;;;;;1.98;1.70;;;;;;;11.35;100.00;100149.47;4998193;28;20038;-85
2021/08/27 04:01:45;;;;;;;2.38;1.35;;;;;;;11.32;100.00;100161.91;4979210;28;20045;-84
2021/08/27 04:04:19;;;;;;;1.98;1.75;;;;;;;11.27;100.00;100159.41;4977482;28;20137;-84
2021/08/27 04:06:53;;;;;;;2.13;1.35;;;;;;;11.25;100.00;100155.91;4988599;28;20038;-85
2021/08/27 04:09:20;;;;;;;1.20;1.10;;;;;;;11.19;100.00;100158.78;4994222;28;20046;-84
2021/08/27 04:11:47;;;;;;;2.20;1.25;;;;;;;11.15;100.00;100159.78;4993415;28;20034;-85
2021/08/27 04:14:13;;;;;;;2.17;1.25;;;;;;;11.13;100.00;100157.19;5025234;28;20096;-87
2021/08/27 04:16:43;;;;;;;2.42;1.50;;;;;;;11.10;100.00;100156.38;5101336;23;20045;-87
2021/08/27 04:19:10;;;;;;;1.83;1.50;;;;;;;11.14;100.00;100158.03;4971579;28;20499;-88
2021/08/27 04:21:37;;;;;;;2.33;1.65;;;;;;;11.19;100.00;100157.00;4958831;28;20517;-88
2021/08/27 04:24:04;;;;;;;1.73;1.40;;;;;;;11.23;100.00;100161.28;4980365;28;20065;-87
2021/08/27 04:26:32;;;;;;;2.20;1.42;;;;;;;11.14;100.00;100158.91;5004848;28;20038;-88
2021/08/27 04:28:58;;;;;;;2.95;1.45;;;;;;;11.07;100.00;100162.66;4995725;28;20534;-87
2021/08/27 04:31:25;;;;;;;2.70;1.50;;;;;;;11.03;100.00;100162.81;4995324;28;20052;-87
2021/08/27 04:33:52;;;;;;;4.03;1.50;;;;;;;11.05;100.00;100155.69;4989865;28;20132;-86
2021/08/27 04:36:19;;;;;;;2.65;1.77;;;;;;;11.01;100.00;100160.19;4992988;28;20045;-86
2021/08/27 04:38:46;;;;;;;1.88;1.60;;;;;;;10.93;100.00;100168.38;4992239;28;20053;-85
2021/08/27 04:41:12;;;;;;;2.63;1.85;;;;;;;11.03;100.00;100165.44;5018235;28;20042;-86
2021/08/27 04:43:39;;;;;;;14.90;2.97;;;;;;;10.95;100.00;100169.19;5002199;28;20718;-86
2021/08/27 04:46:06;;;;;;;2.55;1.48;;;;;;;10.88;100.00;100166.75;4990989;28;20056;-86
2021/08/27 04:48:33;;;;;;;2.13;1.40;;;;;;;10.82;100.00;100173.09;5011527;28;20079;-86
2021/08/27 04:50:59;;;;;;;2.28;1.98;;;;;;;10.87;100.00;100179.13;5008395;28;20045;-85
2021/08/27 04:53:26;;;;;;;1.83;1.58;;;;;;;10.86;100.00;100182.66;4982910;28;20041;-86
2021/08/27 04:55:53;;;;;;;1.88;1.58;;;;;;;10.78;100.00;100183.81;4976484;28;20410;-87
2021/08/27 04:58:22;;;;;;;3.22;1.75;;;;;;;10.84;100.00;100180.97;4996505;28;20048;-87
2021/08/27 05:00:49;;;;;;;2.08;1.80;;;;;;;10.84;100.00;100179.19;4995093;28;20042;-86
2021/08/27 05:03:16;;;;;;;2.13;1.55;;;;;;;10.85;100.00;100174.78;4995575;28;20049;-86
2021/08/27 05:05:43;;;;;;;2.25;1.70;;;;;;;10.89;100.00;100179.06;5012293;28;20053;-86
2021/08/27 05:08:10;;;;;;;2.42;1.70;;;;;;;10.90;100.00;100181.66;5028711;28;20076;-86
2021/08/27 05:10:37;;;;;;;3.30;1.70;;;;;;;10.91;100.00;100183.38;4982060;28;20045;-86
2021/08/27 05:13:03;;;;;;;2.83;1.77;;;;;;;10.92;100.00;100176.31;4989089;28;20056;-86
2021/08/27 05:15:30;;;;;;;3.70;1.80;;;;;;;10.93;100.00;100183.34;4990269;28;20052;-87
2021/08/27 05:17:57;;;;;;;1.92;1.50;;;;;;;10.91;100.00;100183.38;5024704;28;20414;-86
2021/08/27 05:20:23;;;;;;;3.55;2.28;;;;;;;10.89;100.00;100181.72;4990983;28;20053;-86
2021/08/27 05:22:51;;;;;;;3.08;1.45;;;;;;;10.92;100.00;100186.88;5005331;28;20050;-86
2021/08/27 05:25:19;;;;;;;1.88;1.48;;;;;;;10.85;100.00;100188.00;5008945;28;20049;-86
2021/08/27 05:27:50;;;;;;;3.20;1.52;;;;;;;10.89;100.00;100197.56;5012374;28;20041;-86
2021/08/27 05:30:19;;;;;;;2.05;1.50;;;;;;;10.92;100.00;100194.81;5001644;28;20059;-85
2021/08/27 05:32:49;;;;;;;1.80;1.50;;;;;;;11.01;100.00;100186.63;4995200;28;20038;-86
2021/08/27 05:35:16;;;;;;;2.83;1.50;;;;;;;11.13;100.00;100196.84;5010667;28;20055;-86
2021/08/27 05:37:43;;;;;;;2.50;1.45;;;;;;;11.23;100.00;100200.94;4995277;28;20036;-86
2021/08/27 05:40:11;;;;;;;3.38;1.63;;;;;;;11.35;100.00;100196.16;5006311;28;20113;-87
2021/08/27 05:42:39;;;;;;;3.00;1.73;;;;;;;11.28;100.00;100191.09;5008887;28;20502;-86
2021/08/27 05:45:06;;;;;;;1.92;1.70;;;;;;;11.34;100.00;100190.00;5000497;28;20041;-86
2021/08/27 05:47:36;;;;;;;2.00;1.40;;;;;;;11.44;100.00;100194.13;4985315;28;20072;-87
2021/08/27 05:50:04;;;;;;;2.70;1.50;;;;;;;11.47;100.00;100199.31;4992614;28;20045;-86
2021/08/27 05:52:31;;;;;;;1.30;1.20;;;;;;;11.65;100.00;100203.16;5011046;28;20048;-87
2021/08/27 05:54:57;;;;;;;1.83;1.30;;;;;;;11.67;100.00;100201.31;4993816;28;20049;-86
2021/08/27 05:57:24;;;;;;;3.10;1.42;;;;;;;11.74;100.00;100202.84;4993487;28;20045;-86
2021/08/27 05:59:51;;;;;;;1.50;1.35;;;;;;;11.81;100.00;100206.19;5001052;28;20045;-86
2021/08/27 06:02:19;;;;;;;4.00;1.60;;;;;;;11.86;100.00;100208.72;4979309;28;20034;-87
2021/08/27 06:04:46;;;;;;;2.78;1.50;;;;;;;12.01;100.00;100216.13;5010425;28;20046;-87
2021/08/27 06:07:13;;;;;;;2.08;1.20;;;;;;;12.15;100.00;100216.53;4994497;28;20045;-87
2021/08/27 06:09:42;;;;;;;1.42;1.27;;;;;;;12.25;100.00;100215.28;4994328;28;20045;-86
2021/08/27 06:12:09;;;;;;;2.10;1.30;;;;;;;12.31;100.00;100223.03;5012225;28;20049;-87
2021/08/27 06:14:36;;;;;;;2.13;1.50;;;;;;;12.26;100.00;100227.63;5010145;28;20049;-86
2021/08/27 06:17:03;;;;;;;1.55;1.20;;;;;;;12.32;100.00;100230.06;5013614;28;20139;-86
2021/08/27 06:19:30;;;;;;;1.58;1.48;;;;;;;12.35;100.00;100229.94;5014256;28;20507;-86
2021/08/27 06:21:58;;;;;;;3.35;1.35;;;;;;;12.31;100.00;100225.69;4999108;28;20080;-85
2021/08/27 06:24:25;;;;;;;2.00;1.42;;;;;;;12.47;100.00;100230.44;5023184;28;20553;-85
2021/08/27 06:26:52;;;;;;;1.23;1.13;;;;;;;12.58;100.00;100225.63;5032750;28;20049;-85
2021/08/27 06:29:19;;;;;;;1.88;1.17;;;;;;;12.73;100.00;100225.09;4997879;28;20053;-85
2021/08/27 06:31:46;;;;;;;1.95;1.13;;;;;;;12.85;100.00;100234.38;4995587;28;20491;-85
2021/08/27 06:34:13;;;;;;;2.28;1.00;;;;;;;12.94;100.00;100232.25;5013258;28;20045;-85
2021/08/27 06:36:39;;;;;;;1.30;1.10;;;;;;;13.00;100.00;100231.16;5032104;28;20502;-84
2021/08/27 06:39:06;;;;;;;2.35;1.15;;;;;;;13.01;100.00;100243.50;4980179;28;20453;-85
2021/08/27 06:41:33;;;;;;;1.20;1.10;;;;;;;12.96;100.00;100241.03;4997585;28;20072;-84
2021/08/27 06:44:00;;;;;;;1.90;1.00;;;;;;;12.97;100.00;100244.53;4998243;28;20560;-84
2021/08/27 06:46:27;;;;;;;1.42;1.10;;;;;;;12.95;100.00;100249.03;4999159;28;20045;-83
2021/08/27 06:48:53;;;;;;;0.90;0.90;;;;;;;12.98;100.00;100245.41;5014491;28;20052;-83
2021/08/27 06:51:20;;;;;;;1.25;1.15;;;;;;;13.14;100.00;100242.13;5030735;28;20044;-83
2021/08/27 06:53:47;;;;;;;1.45;1.08;;;;;;;13.29;100.00;100246.03;5002992;28;20050;-83
2021/08/27 06:56:13;;;;;;;1.20;1.10;;;;;;;13.41;100.00;100244.69;4997651;28;20042;-84
2021/08/27 06:58:40;;;;;;;1.58;1.00;;;;;;;13.53;100.00;100241.53;5003979;28;20045;-83
2021/08/27 07:01:07;;;;;;;2.15;1.15;;;;;;;13.65;100.00;100245.50;4997114;28;20049;-83
2021/08/27 07:03:34;;;;;;;1.20;1.00;;;;;;;13.64;100.00;100252.59;4998962;28;20134;-83
2021/08/27 07:06:01;;;;;;;1.60;1.23;;;;;;;13.50;100.00;100245.19;5011714;28;20080;-84
2021/08/27 07:08:27;;;;;;;1.65;1.30;;;;;;;13.60;100.00;100252.78;5015465;28;20037;-84
2021/08/27 07:10:54;;;;;;;2.55;1.23;;;;;;;13.64;100.00;100251.75;4998021;28;20041;-83
2021/08/27 07:13:21;;;;;;;1.20;1.10;;;;;;;13.78;100.00;100244.94;5009290;28;20487;-86
2021/08/27 07:15:49;;;;;;;1.90;1.48;;;;;;;13.92;100.00;100248.84;5013741;28;20045;-80
2021/08/27 07:18:16;;;;;;;1.38;1.20;;;;;;;13.83;100.00;100247.41;5016179;28;20038;-83
2021/08/27 07:20:43;;;;;;;1.67;1.20;;;;;;;13.77;100.00;100250.31;5030126;28;20049;-84
2021/08/27 07:23:12;;;;;;;1.30;1.20;;;;;;;13.87;100.00;100251.66;5012200;28;20053;-84
2021/08/27 07:25:40;;;;;;;1.60;1.50;;;;;;;13.96;100.00;100253.97;5003351;28;20053;-84
2021/08/27 07:28:07;;;;;;;1.40;1.27;;;;;;;13.83;100.00;100263.34;4979544;28;20044;-84
2021/08/27 07:30:34;;;;;;;1.48;1.23;;;;;;;13.86;100.00;100259.69;5001774;28;20072;-84
2021/08/27 07:33:00;;;;;;;1.85;1.52;;;;;;;13.96;100.00;100261.94;5001347;28;20442;-83
2021/08/27 07:35:27;;;;;;;2.13;1.20;;;;;;;13.94;100.00;100258.47;4997083;28;20068;-83
2021/08/27 07:37:54;;;;;;;2.25;1.23;;;;;;;13.97;100.00;100261.00;5030984;28;20053;-82
2021/08/27 07:40:20;;;;;;;1.58;1.40;;;;;;;14.21;100.00;100264.47;5011795;28;20045;-83
2021/08/27 07:42:49;;;;;;;1.95;1.30;;;;;;;14.31;100.00;100259.63;5013412;28;20449;-84
2021/08/27 07:45:18;;;;;;;1.30;1.20;;;;;;;14.19;100.00;100268.94;4998136;28;20045;-84
2021/08/27 07:47:45;;;;;;;1.60;1.08;;;;;;;14.38;100.00;100274.38;5013225;28;20084;-84
2021/08/27 07:50:13;;;;;;;1.35;1.05;;;;;;;14.52;100.00;100272.00;4991884;28;20411;-84
2021/08/27 07:52:40;;;;;;;4.63;1.63;;;;;;;14.72;100.00;100263.19;4993842;28;20111;-84
2021/08/27 07:55:08;;;;;;;2.33;1.20;;;;;;;14.86;99.50;100271.41;4992891;28;20499;-84
2021/08/27 07:57:42;;;;;;;1.55;1.17;;;;;;;15.03;97.04;100273.31;5011752;28;20046;-84
2021/08/27 08:00:10;;;;;;;1.15;1.05;;;;;;;14.92;100.00;100279.13;4996764;28;20052;-85
2021/08/27 08:02:37;;;;;;;1.35;1.20;;;;;;;15.03;100.00;100277.78;4995380;28;20041;-85
2021/08/27 08:05:04;;;;;;;1.75;1.08;;;;;;;15.03;100.00;100278.63;4991892;28;20065;-85
2021/08/27 08:07:31;;;;;;;2.38;1.15;;;;;;;15.01;100.00;100282.31;5001997;28;20046;-84
2021/08/27 08:09:58;;;;;;;1.30;1.10;;;;;;;15.14;98.53;100276.38;5006730;28;20049;-85
2021/08/27 08:12:25;;;;;;;2.03;0.98;;;;;;;15.24;92.05;100284.78;5009934;28;20045;-85
2021/08/27 08:14:52;;;;;;;2.45;1.35;;;;;;;15.41;95.80;100282.22;5005397;28;20052;-84
2021/08/27 08:17:19;;;;;;;2.08;0.90;;;;;;;15.32;99.53;100287.97;4995190;28;20048;-85
2021/08/27 08:19:45;;;;;;;2.00;1.00;;;;;;;14.93;100.00;100285.31;5011902;28;20038;-85
2021/08/27 08:22:12;;;;;;;1.75;0.93;;;;;;;15.16;100.00;100290.47;4997178;28;20128;-84
2021/08/27 08:24:39;;;;;;;1.08;0.90;;;;;;;15.38;100.00;100294.78;5012213;28;20388;-84
2021/08/27 08:27:05;;;;;;;2.22;1.20;;;;;;;15.49;100.00;100297.84;5012131;28;20039;-85
2021/08/27 08:29:32;;;;;;;1.05;0.88;;;;;;;15.57;96.46;100301.00;4992217;28;20042;-84
2021/08/27 08:31:59;;;;;;;0.90;0.80;;;;;;;15.65;96.09;100292.69;4993446;28;20128;-85
2021/08/27 08:34:25;;;;;;;2.58;1.00;;;;;;;15.54;95.56;100301.13;5028705;28;20045;-84
2021/08/27 08:36:52;;;;;;;1.08;0.80;;;;;;;15.41;89.69;100306.19;4993107;28;20037;-84
2021/08/27 08:39:19;;;;;;;1.23;0.75;;;;;;;15.24;94.12;100308.75;5006709;28;20880;-85
2021/08/27 08:41:46;;;;;;;1.88;1.10;;;;;;;15.12;97.00;100317.25;4999400;28;20042;-84
2021/08/27 08:44:13;;;;;;;1.08;0.82;;;;;;;14.97;98.66;100316.16;5011394;28;20060;-83
2021/08/27 08:46:41;;;;;;;2.25;1.33;;;;;;;14.97;99.88;100316.16;5007666;28;20463;-84
2021/08/27 08:49:09;;;;;;;0.90;0.90;;;;;;;14.91;100.00;100316.44;4995635;28;20461;-84
2021/08/27 08:51:36;;;;;;;2.90;1.02;;;;;;;14.95;96.10;100323.31;5013962;28;20048;-83
2021/08/27 08:54:03;;;;;;;1.08;0.80;;;;;;;15.00;100.00;100331.13;4993060;28;20049;-84
2021/08/27 08:56:30;;;;;;;4.28;1.30;;;;;;;14.87;99.48;100318.34;5001642;28;20065;-84
2021/08/27 08:58:58;;;;;;;1.02;1.00;;;;;;;14.88;100.00;100316.53;4978095;28;20666;-84
2021/08/27 09:01:25;;;;;;;1.92;1.00;;;;;;;14.90;97.58;100320.88;4964387;28;20046;-84
2021/08/27 09:03:52;;;;;;;1.02;0.90;;;;;;;15.19;97.87;100321.38;4989332;28;20199;-84
2021/08/27 09:06:18;;;;;;;1.20;1.10;;;;;;;15.54;91.94;100316.25;4992967;28;20041;-85
2021/08/27 09:08:47;;;;;;;1.23;1.00;;;;;;;15.92;94.60;100327.81;5028720;28;20041;-83
2021/08/27 09:11:15;;;;;;;2.88;1.00;;;;;;;15.98;89.42;100323.06;5012016;28;20055;-84
2021/08/27 09:13:43;;;;;;;1.17;0.98;;;;;;;15.84;88.06;100314.84;5014161;28;20095;-85
2021/08/27 09:16:10;;;;;;;1.98;0.98;;;;;;;15.77;90.58;100318.75;5011147;28;20175;-84
2021/08/27 09:18:44;;;;;;;0.80;0.80;;;;;;;15.63;87.82;100326.50;4996939;28;20041;-84
2021/08/27 09:21:27;;;;;;;1.95;1.02;;;;;;;15.43;90.14;100335.38;5009636;28;20056;-84
2021/08/27 09:24:08;;;;;;;1.00;0.90;;;;;;;15.43;92.59;100333.59;4999751;28;20618;-85
2021/08/27 09:26:36;;;;;;;1.25;0.93;;;;;;;15.52;90.51;100337.63;5020700;28;20045;-85
2021/08/27 09:29:03;;;;;;;0.90;0.90;;;;;;;15.37;88.21;100335.66;4990620;28;20041;-85
2021/08/27 09:31:35;;;;;;;1.10;1.00;;;;;;;15.25;94.60;100339.75;4997842;28;20072;-83
2021/08/27 09:34:02;;;;;;;1.25;0.90;;;;;;;15.36;98.92;100344.56;5012046;28;20049;-84
2021/08/27 09:36:30;;;;;;;2.00;1.08;;;;;;;15.45;90.32;100339.69;5011685;28;20045;-83
2021/08/27 09:39:08;;;;;;;2.08;1.35;;;;;;;15.47;90.93;100344.97;5005789;28;20104;-84
2021/08/27 09:41:35;;;;;;;1.50;1.00;;;;;;;15.67;90.86;100341.41;4997181;28;20136;-84
2021/08/27 09:44:02;;;;;;;1.13;1.02;;;;;;;15.84;88.21;100343.28;5011209;28;20056;-84
2021/08/27 09:46:36;;;;;;;2.35;1.23;;;;;;;16.20;93.60;100341.50;5006402;28;20038;-83
2021/08/27 09:49:05;;;;;;;1.75;1.17;;;;;;;16.56;86.40;100345.97;4993349;28;20414;-86
2021/08/27 09:51:46;;;;;;;1.50;1.25;;;;;;;16.79;87.09;100350.19;5034986;28;20041;-84
2021/08/27 09:54:40;;;;;;;1.60;1.50;;;;;;;16.96;82.25;100346.63;5008890;28;20045;-84
2021/08/27 09:57:10;;;;;;;2.70;1.80;;;;;;;16.70;83.78;100356.84;5032747;28;20051;-84
2021/08/27 09:59:42;;;;;;;2.50;2.03;;;;;;;16.86;82.87;100359.59;5015127;28;20045;-84
2021/08/27 10:02:11;;;;;;;2.83;2.45;;;;;;;17.16;76.75;100355.34;5009229;28;20050;-84
2021/08/27 10:04:54;;;;;;;3.25;2.70;;;;;;;16.92;80.39;100361.09;5012023;28;20045;-84
2021/08/27 10:07:33;;;;;;;3.25;2.28;;;;;;;16.93;84.21;100357.47;5029791;28;20041;-83
2021/08/27 10:10:02;;;;;;;4.55;3.40;;;;;;;17.38;77.35;100357.72;5014967;28;20133;-84
2021/08/27 10:12:31;;;;;;;5.72;3.75;;;;;;;17.37;77.36;100361.34;5012861;28;20046;-84
2021/08/27 10:14:58;;;;;;;4.10;3.35;;;;;;;17.37;76.23;100357.81;4995455;28;20056;-84
2021/08/27 10:17:25;;;;;;;4.43;3.08;;;;;;;17.19;74.96;100364.13;5016268;28;20052;-83
2021/08/27 10:19:51;;;;;;;4.85;3.45;;;;;;;17.07;75.11;100362.97;4998302;28;20038;-84
2021/08/27 10:22:18;;;;;;;5.13;4.05;;;;;;;17.03;74.36;100362.25;5010928;28;20415;-85
2021/08/27 10:24:46;;;;;;;4.90;3.47;;;;;;;16.94;76.81;100359.22;5026797;28;20045;-85
2021/08/27 10:27:16;;;;;;;4.00;3.30;;;;;;;16.87;75.56;100372.00;5013012;28;20038;-84
2021/08/27 10:29:51;;;;;;;4.70;3.33;;;;;;;16.81;81.88;100362.47;5009976;28;20164;-84
2021/08/27 10:32:40;;;;;;;4.40;3.25;;;;;;;16.63;79.57;100378.53;4999078;28;20045;-85
2021/08/27 10:35:08;;;;;;;5.95;3.33;;;;;;;16.45;75.66;100380.31;5014283;28;20045;-84
2021/08/27 10:37:42;;;;;;;7.25;4.35;;;;;;;16.25;78.31;100373.28;4999780;28;20560;-84
2021/08/27 10:40:24;;;;;;;5.40;3.92;;;;;;;16.09;85.11;100383.81;4997667;28;20037;-84
2021/08/27 10:42:59;;;;;;;6.25;3.63;;;;;;;16.23;82.26;100376.03;5018435;28;20060;-84
2021/08/27 10:45:41;;;;;;;3.67;3.17;;;;;;;15.87;79.77;100375.97;5013497;28;20056;-84
2021/08/27 10:48:12;;;;;;;5.50;3.38;;;;;;;15.83;85.22;100381.53;5025541;28;20041;-84
2021/08/27 10:50:40;;;;;;;5.82;3.58;;;;;;;15.87;86.48;100389.28;4993756;28;20054;-84
2021/08/27 10:53:26;;;;;;;5.60;3.33;;;;;;;15.81;86.48;100386.03;5028711;28;20048;-84
2021/08/27 10:55:53;;;;;;;6.45;3.35;;;;;;;15.64;90.91;100390.38;5014418;28;20452;-85
2021/08/27 10:58:22;;;;;;;6.43;3.72;;;;;;;15.42;95.18;100393.09;4990518;23;20066;-85
2021/08/27 11:00:53;;;;;;;6.35;4.25;;;;;;;15.39;98.01;100397.69;4967436;28;20043;-84
2021/08/27 11:03:21;;;;;;;5.68;3.90;;;;;;;15.44;100.00;100406.31;4953479;28;20487;-86
2021/08/27 11:05:49;;;;;;;4.95;3.72;;;;;;;15.46;97.62;100401.78;4935413;28;20057;-85
2021/08/27 11:08:18;;;;;;;3.75;3.30;;;;;;;15.40;95.13;100407.41;4948871;28;20221;-85
2021/08/27 11:11:24;;;;;;;4.95;4.13;;;;;;;15.23;97.33;100400.16;4935628;28;20047;-84
2021/08/27 11:13:50;;;;;;;4.47;3.60;;;;;;;15.06;97.68;100405.34;4919811;28;20046;-85
2021/08/27 11:16:23;;;;;;;5.13;3.78;;;;;;;15.17;100.00;100401.28;4908364;28;20460;-85
2021/08/27 11:18:51;;;;;;;5.50;3.88;;;;;;;15.40;100.00;100404.75;4942875;28;20112;-85
2021/08/27 11:21:33;;;;;;;4.28;3.80;;;;;;;15.39;100.00;100403.88;4942885;28;20045;-85
2021/08/27 11:24:17;;;;;;;5.15;4.43;;;;;;;15.44;100.00;100407.19;4954633;28;20069;-84
2021/08/27 11:26:47;;;;;;;4.75;4.25;;;;;;;15.25;96.56;100405.41;4953029;28;20477;-84
2021/08/27 11:29:49;;;;;;;5.45;4.35;;;;;;;15.24;100.00;100403.69;4948129;28;20086;-84